createdAt,value
2023-03-25T00:08:01.928Z,10.96
2023-03-25T00:18:06.939Z,10.81
2023-03-25T00:28:12.555Z,10.85
2023-03-25T00:38:16.967Z,10.75
2023-03-25T00:48:20.778Z,10.80
2023-03-25T00:58:25.446Z,10.77
2023-03-25T01:08:29.742Z,10.76
2023-03-25T01:18:38.130Z,10.62
2023-03-25T01:28:41.875Z,10.91
2023-03-25T01:38:48.030Z,10.85
2023-03-25T01:48:51.396Z,11.02
2023-03-25T01:58:56.819Z,10.72
2023-03-25T02:09:01.352Z,10.77
2023-03-25T02:19:24.563Z,10.67
2023-03-25T02:29:39.686Z,10.65
2023-03-25T02:39:48.365Z,10.65
2023-03-25T02:49:57.301Z,10.46
2023-03-25T03:00:02.505Z,10.55
2023-03-25T03:10:19.482Z,10.60
2023-03-25T03:20:36.019Z,10.55
2023-03-25T03:30:47.235Z,10.48
2023-03-25T03:40:57.248Z,10.31
2023-03-25T03:51:08.013Z,10.22
2023-03-25T04:01:16.235Z,10.06
2023-03-25T04:11:24.059Z,10.06
2023-03-25T04:21:30.131Z,10.04
2023-03-25T04:31:34.014Z,10.01
2023-03-25T04:41:39.139Z,10.05
2023-03-25T04:51:45.123Z,10.10
2023-03-25T05:01:50.393Z,10.02
2023-03-25T05:11:56.065Z,9.87
2023-03-25T05:22:02.354Z,10.02
2023-03-25T05:32:05.610Z,9.87
2023-03-25T05:42:10.954Z,10.13
2023-03-25T05:52:14.711Z,10.05
2023-03-25T06:02:19.158Z,10.13
2023-03-25T06:12:27.674Z,10.42
2023-03-25T06:22:34.198Z,10.21
2023-03-25T06:32:37.781Z,10.50
2023-03-25T06:42:42.969Z,10.50
2023-03-25T06:53:12.155Z,10.69
2023-03-25T07:03:16.431Z,10.52
2023-03-25T07:13:19.633Z,9.98
2023-03-25T07:23:24.290Z,9.87
2023-03-25T07:33:28.014Z,9.86
2023-03-25T07:43:33.360Z,9.59
2023-03-25T07:53:55.334Z,9.21
2023-03-25T08:04:09.643Z,9.12
2023-03-25T08:14:12.944Z,9.11
2023-03-25T08:24:17.907Z,9.30
2023-03-25T08:34:22.434Z,10.10
2023-03-25T08:44:33.081Z,10.53
2023-03-25T08:54:36.199Z,10.74
2023-03-25T09:04:41.008Z,11.17
2023-03-25T09:14:45.384Z,11.08
2023-03-25T09:24:49.867Z,11.36
2023-03-25T09:34:52.928Z,11.45
2023-03-25T09:45:12.059Z,11.91
2023-03-25T09:55:21.794Z,11.66
2023-03-25T10:05:40.668Z,11.76
2023-03-25T10:15:52.997Z,12.24
2023-03-25T10:26:03.427Z,11.58
2023-03-25T10:36:12.691Z,11.54
2023-03-25T10:46:25.784Z,11.96
2023-03-25T10:56:32.959Z,12.91
2023-03-25T11:06:40.256Z,12.69
2023-03-25T11:16:46.997Z,12.31
2023-03-25T11:26:52.946Z,12.42
2023-03-25T11:37:01.903Z,12.76
2023-03-25T11:47:10.482Z,12.40
2023-03-25T11:57:17.424Z,13.39
2023-03-25T12:07:22.354Z,12.92
2023-03-25T12:17:38.208Z,12.89
2023-03-25T12:27:56.495Z,13.35
2023-03-25T12:38:32.640Z,14.17
2023-03-25T12:48:57.808Z,14.60
2023-03-25T12:59:17.515Z,13.47
2023-03-25T13:09:27.940Z,14.08
2023-03-25T13:19:36.783Z,14.23
2023-03-25T13:29:45.458Z,14.36
2023-03-25T13:40:14.438Z,14.13
2023-03-25T13:50:26.631Z,13.68
2023-03-25T14:01:04.303Z,13.47
2023-03-25T14:11:23.311Z,13.32
2023-03-25T14:21:33.910Z,11.74
2023-03-25T14:31:38.232Z,11.81
2023-03-25T14:41:58.601Z,11.90
2023-03-25T14:52:03.442Z,12.54
2023-03-25T15:02:16.432Z,12.52
2023-03-25T15:12:25.748Z,12.60
2023-03-25T15:22:29.560Z,12.68
2023-03-25T15:32:49.469Z,13.12
2023-03-25T15:43:22.066Z,13.00
2023-03-25T15:53:43.158Z,13.04
2023-03-25T16:03:47.130Z,13.06
2023-03-25T16:14:06.795Z,13.13
2023-03-25T16:24:14.154Z,13.06
2023-03-25T16:34:18.654Z,13.00
2023-03-25T16:44:24.366Z,12.98
2023-03-25T16:54:38.018Z,12.93
2023-03-25T17:04:43.216Z,12.99
2023-03-25T17:14:51.461Z,12.94
2023-03-25T17:25:00.191Z,12.92
2023-03-25T17:35:06.967Z,12.93
2023-03-25T17:45:16.165Z,13.01
2023-03-25T17:55:21.001Z,12.46
2023-03-25T18:05:23.980Z,12.26
2023-03-25T18:15:28.766Z,12.09
2023-03-25T18:25:34.131Z,12.15
2023-03-25T18:36:04.775Z,12.13
2023-03-25T18:46:08.244Z,12.03
2023-03-25T18:56:12.706Z,11.96
2023-03-25T19:06:15.975Z,11.97
2023-03-25T19:16:21.145Z,11.88
2023-03-25T19:26:24.635Z,11.95
2023-03-25T19:36:29.216Z,11.85
2023-03-25T19:46:33.824Z,11.81
2023-03-25T19:56:38.461Z,11.81
2023-03-25T20:06:42.176Z,12.13
2023-03-25T20:16:46.509Z,11.79
2023-03-25T20:26:49.630Z,11.66
2023-03-25T20:36:54.584Z,11.41
2023-03-25T20:46:57.793Z,11.40
2023-03-25T20:57:02.366Z,11.36
2023-03-25T21:07:05.566Z,11.36
2023-03-25T21:17:10.455Z,11.15
2023-03-25T21:27:17.727Z,11.09
2023-03-25T21:37:22.191Z,11.20
2023-03-25T21:47:25.513Z,11.07
2023-03-25T21:57:30.755Z,11.12
2023-03-25T22:07:33.998Z,11.12
2023-03-25T22:17:38.725Z,10.99
2023-03-25T22:27:42.379Z,11.02
2023-03-25T22:37:47.084Z,10.95
2023-03-25T22:47:51.109Z,10.88
2023-03-25T22:57:55.588Z,10.80
2023-03-25T23:07:58.667Z,10.72
2023-03-25T23:18:03.604Z,10.63
2023-03-25T23:28:06.750Z,10.74
2023-03-25T23:38:11.278Z,10.74
2023-03-25T23:48:14.569Z,10.76
2023-03-25T23:58:19.731Z,10.58
